Aviation Digital Data Service (ADDS)

Output produced by METARs form (1340 UTC 22 April 2021)
found at http://www.aviationweather.gov/metar/data/
 
KMSP 221253Z 23006KT 10SM CLR 04/M04 A2999 RMK AO2 SLP161 T00441044
KMSP 221120Z 2212/2318 23006KT P6SM SCT090 
     FM221400 24008G18KT P6SM FEW250 
     FM230300 21008KT P6SM BKN180 
     FM230900 20006KT P6SM -SHRA SCT035 OVC060 
     FM231100 18006KT P6SM -SHRA BKN025 
     FM231300 16007KT P6SM BKN015
       
KRNH 221335Z AUTO 22007KT 10SM CLR 05/M03 A2997 RMK AO2 T00521035
KRNH 221315Z AUTO 22006KT 10SM CLR 04/M03 A2997 RMK AO2 T00411032
KRNH 221255Z AUTO 22007KT 10SM CLR 03/M03 A2997 RMK AO2 T00301031
KRNH 221120Z 2212/2312 23006KT P6SM SKC 
     FM221800 24011G16KT P6SM SCT250 
     FM230000 23007KT P6SM SKC 
     FM231100 19005KT P6SM -SHRA OVC050